sensor_id;sensor_type;location;lat;lon;timestamp;P1;durP1;ratioP1;P2;durP2;ratioP2
17598;SDS011;8918;52.092;5.232;2023-05-10T00:01:50;57.03;;;31.07;;
17598;SDS011;8918;52.092;5.232;2023-05-10T00:04:16;62.00;;;31.77;;
17598;SDS011;8918;52.092;5.232;2023-05-10T00:06:41;51.80;;;29.07;;
17598;SDS011;8918;52.092;5.232;2023-05-10T00:09:07;58.23;;;32.67;;
17598;SDS011;8918;52.092;5.232;2023-05-10T00:11:32;61.27;;;32.40;;
17598;SDS011;8918;52.092;5.232;2023-05-10T00:13:58;63.00;;;33.57;;
17598;SDS011;8918;52.092;5.232;2023-05-10T00:16:23;60.30;;;32.27;;
17598;SDS011;8918;52.092;5.232;2023-05-10T00:18:49;60.50;;;31.63;;
17598;SDS011;8918;52.092;5.232;2023-05-10T00:21:14;64.33;;;33.50;;
17598;SDS011;8918;52.092;5.232;2023-05-10T00:23:40;63.63;;;32.73;;
17598;SDS011;8918;52.092;5.232;2023-05-10T00:26:06;60.13;;;33.27;;
17598;SDS011;8918;52.092;5.232;2023-05-10T00:28:31;63.10;;;33.23;;
17598;SDS011;8918;52.092;5.232;2023-05-10T00:30:57;60.10;;;32.23;;
17598;SDS011;8918;52.092;5.232;2023-05-10T00:33:22;68.03;;;34.90;;
17598;SDS011;8918;52.092;5.232;2023-05-10T00:35:48;67.27;;;34.87;;
17598;SDS011;8918;52.092;5.232;2023-05-10T00:38:13;61.07;;;32.47;;
17598;SDS011;8918;52.092;5.232;2023-05-10T00:40:39;63.90;;;32.87;;
17598;SDS011;8918;52.092;5.232;2023-05-10T00:43:05;68.57;;;34.03;;
17598;SDS011;8918;52.092;5.232;2023-05-10T00:45:31;63.90;;;33.90;;
17598;SDS011;8918;52.092;5.232;2023-05-10T00:47:58;60.53;;;33.43;;
17598;SDS011;8918;52.092;5.232;2023-05-10T00:50:27;67.70;;;34.73;;
17598;SDS011;8918;52.092;5.232;2023-05-10T00:52:52;73.83;;;35.20;;
17598;SDS011;8918;52.092;5.232;2023-05-10T00:55:18;69.77;;;34.40;;
17598;SDS011;8918;52.092;5.232;2023-05-10T00:57:44;79.27;;;35.50;;
17598;SDS011;8918;52.092;5.232;2023-05-10T01:00:10;84.53;;;35.60;;
17598;SDS011;8918;52.092;5.232;2023-05-10T01:02:37;72.93;;;34.13;;
17598;SDS011;8918;52.092;5.232;2023-05-10T01:05:03;74.33;;;33.97;;
17598;SDS011;8918;52.092;5.232;2023-05-10T01:07:30;77.23;;;34.53;;
17598;SDS011;8918;52.092;5.232;2023-05-10T01:09:55;67.53;;;33.43;;
17598;SDS011;8918;52.092;5.232;2023-05-10T01:12:22;79.83;;;36.17;;
17598;SDS011;8918;52.092;5.232;2023-05-10T01:14:48;79.30;;;35.27;;
17598;SDS011;8918;52.092;5.232;2023-05-10T01:17:14;74.57;;;33.77;;
17598;SDS011;8918;52.092;5.232;2023-05-10T01:19:40;73.10;;;32.73;;
17598;SDS011;8918;52.092;5.232;2023-05-10T01:22:34;77.47;;;33.70;;
17598;SDS011;8918;52.092;5.232;2023-05-10T01:33:56;70.17;;;31.70;;
17598;SDS011;8918;52.092;5.232;2023-05-10T01:41:48;70.40;;;32.77;;
17598;SDS011;8918;52.092;5.232;2023-05-10T01:44:33;70.60;;;33.20;;
17598;SDS011;8918;52.092;5.232;2023-05-10T01:47:09;66.63;;;31.07;;
17598;SDS011;8918;52.092;5.232;2023-05-10T01:49:42;72.70;;;33.07;;
17598;SDS011;8918;52.092;5.232;2023-05-10T01:52:12;67.40;;;32.50;;
17598;SDS011;8918;52.092;5.232;2023-05-10T01:54:43;73.13;;;33.57;;
17598;SDS011;8918;52.092;5.232;2023-05-10T01:57:14;72.00;;;33.97;;
17598;SDS011;8918;52.092;5.232;2023-05-10T01:59:44;72.03;;;33.33;;
17598;SDS011;8918;52.092;5.232;2023-05-10T02:02:13;70.00;;;34.27;;
17598;SDS011;8918;52.092;5.232;2023-05-10T02:04:39;74.37;;;33.80;;
17598;SDS011;8918;52.092;5.232;2023-05-10T02:07:06;78.40;;;35.23;;
17598;SDS011;8918;52.092;5.232;2023-05-10T02:09:33;71.03;;;34.27;;
17598;SDS011;8918;52.092;5.232;2023-05-10T02:12:00;79.77;;;34.87;;
17598;SDS011;8918;52.092;5.232;2023-05-10T02:14:29;74.67;;;35.80;;
17598;SDS011;8918;52.092;5.232;2023-05-10T02:16:57;85.87;;;35.90;;
17598;SDS011;8918;52.092;5.232;2023-05-10T02:19:24;86.53;;;36.07;;
17598;SDS011;8918;52.092;5.232;2023-05-10T02:21:52;84.07;;;35.93;;
17598;SDS011;8918;52.092;5.232;2023-05-10T02:24:20;86.50;;;35.93;;
17598;SDS011;8918;52.092;5.232;2023-05-10T02:26:47;86.53;;;35.70;;
17598;SDS011;8918;52.092;5.232;2023-05-10T02:29:14;84.13;;;35.93;;
17598;SDS011;8918;52.092;5.232;2023-05-10T02:31:41;91.47;;;36.73;;
17598;SDS011;8918;52.092;5.232;2023-05-10T02:34:08;91.37;;;36.57;;
17598;SDS011;8918;52.092;5.232;2023-05-10T02:36:35;117.73;;;39.13;;
17598;SDS011;8918;52.092;5.232;2023-05-10T02:39:02;96.20;;;36.77;;
17598;SDS011;8918;52.092;5.232;2023-05-10T02:41:29;102.03;;;36.17;;
17598;SDS011;8918;52.092;5.232;2023-05-10T02:43:57;104.27;;;34.83;;
17598;SDS011;8918;52.092;5.232;2023-05-10T02:46:26;101.60;;;35.97;;
17598;SDS011;8918;52.092;5.232;2023-05-10T02:48:51;104.50;;;36.50;;
17598;SDS011;8918;52.092;5.232;2023-05-10T02:51:18;123.70;;;38.57;;
17598;SDS011;8918;52.092;5.232;2023-05-10T02:53:48;120.40;;;39.23;;
17598;SDS011;8918;52.092;5.232;2023-05-10T02:56:24;109.80;;;37.03;;
17598;SDS011;8918;52.092;5.232;2023-05-10T02:58:54;125.27;;;38.47;;
17598;SDS011;8918;52.092;5.232;2023-05-10T03:01:20;108.70;;;38.40;;
17598;SDS011;8918;52.092;5.232;2023-05-10T03:03:46;113.90;;;38.30;;
17598;SDS011;8918;52.092;5.232;2023-05-10T03:06:11;106.83;;;37.97;;
17598;SDS011;8918;52.092;5.232;2023-05-10T03:08:37;101.03;;;38.13;;
17598;SDS011;8918;52.092;5.232;2023-05-10T03:11:47;94.57;;;37.10;;
17598;SDS011;8918;52.092;5.232;2023-05-10T03:14:13;99.73;;;37.17;;
17598;SDS011;8918;52.092;5.232;2023-05-10T03:17:00;94.33;;;36.63;;
17598;SDS011;8918;52.092;5.232;2023-05-10T03:19:32;96.13;;;37.57;;
17598;SDS011;8918;52.092;5.232;2023-05-10T03:22:17;83.60;;;36.63;;
17598;SDS011;8918;52.092;5.232;2023-05-10T03:24:49;81.67;;;34.53;;
17598;SDS011;8918;52.092;5.232;2023-05-10T03:27:18;88.63;;;37.13;;
17598;SDS011;8918;52.092;5.232;2023-05-10T03:29:45;93.40;;;37.13;;
17598;SDS011;8918;52.092;5.232;2023-05-10T03:32:11;90.27;;;36.40;;
17598;SDS011;8918;52.092;5.232;2023-05-10T03:34:41;93.23;;;36.60;;
17598;SDS011;8918;52.092;5.232;2023-05-10T03:37:08;92.33;;;35.83;;
17598;SDS011;8918;52.092;5.232;2023-05-10T03:39:34;93.77;;;37.03;;
17598;SDS011;8918;52.092;5.232;2023-05-10T03:41:59;80.40;;;33.83;;
17598;SDS011;8918;52.092;5.232;2023-05-10T03:44:25;88.47;;;35.37;;
17598;SDS011;8918;52.092;5.232;2023-05-10T03:46:50;91.90;;;35.30;;
17598;SDS011;8918;52.092;5.232;2023-05-10T03:49:16;98.27;;;36.60;;
17598;SDS011;8918;52.092;5.232;2023-05-10T03:51:42;104.33;;;36.80;;
17598;SDS011;8918;52.092;5.232;2023-05-10T03:54:07;106.43;;;37.87;;
17598;SDS011;8918;52.092;5.232;2023-05-10T03:56:33;86.53;;;34.00;;
17598;SDS011;8918;52.092;5.232;2023-05-10T03:58:58;96.97;;;37.10;;
17598;SDS011;8918;52.092;5.232;2023-05-10T04:01:24;105.67;;;36.80;;
17598;SDS011;8918;52.092;5.232;2023-05-10T04:03:49;99.07;;;37.97;;
17598;SDS011;8918;52.092;5.232;2023-05-10T04:06:15;104.50;;;38.63;;
17598;SDS011;8918;52.092;5.232;2023-05-10T04:08:41;97.67;;;36.63;;
17598;SDS011;8918;52.092;5.232;2023-05-10T04:11:07;100.87;;;37.10;;
17598;SDS011;8918;52.092;5.232;2023-05-10T04:13:33;116.83;;;39.43;;
17598;SDS011;8918;52.092;5.232;2023-05-10T04:15:59;112.23;;;38.50;;
17598;SDS011;8918;52.092;5.232;2023-05-10T04:18:25;102.77;;;37.63;;
17598;SDS011;8918;52.092;5.232;2023-05-10T04:20:51;111.33;;;39.80;;
17598;SDS011;8918;52.092;5.232;2023-05-10T04:23:16;120.17;;;39.10;;
17598;SDS011;8918;52.092;5.232;2023-05-10T04:25:42;105.77;;;38.53;;
17598;SDS011;8918;52.092;5.232;2023-05-10T04:28:08;102.93;;;38.17;;
17598;SDS011;8918;52.092;5.232;2023-05-10T04:30:34;104.87;;;38.00;;
17598;SDS011;8918;52.092;5.232;2023-05-10T04:33:00;116.70;;;40.77;;
17598;SDS011;8918;52.092;5.232;2023-05-10T04:35:26;107.00;;;37.87;;
17598;SDS011;8918;52.092;5.232;2023-05-10T04:37:53;114.90;;;39.30;;
17598;SDS011;8918;52.092;5.232;2023-05-10T04:40:19;100.17;;;38.37;;
17598;SDS011;8918;52.092;5.232;2023-05-10T04:42:45;104.53;;;40.50;;
17598;SDS011;8918;52.092;5.232;2023-05-10T04:45:10;96.70;;;39.30;;
17598;SDS011;8918;52.092;5.232;2023-05-10T04:47:36;101.80;;;39.90;;
17598;SDS011;8918;52.092;5.232;2023-05-10T04:50:02;93.27;;;39.57;;
17598;SDS011;8918;52.092;5.232;2023-05-10T04:52:28;103.33;;;41.50;;
17598;SDS011;8918;52.092;5.232;2023-05-10T04:54:54;93.67;;;39.73;;
17598;SDS011;8918;52.092;5.232;2023-05-10T04:57:19;94.97;;;39.73;;
17598;SDS011;8918;52.092;5.232;2023-05-10T04:59:45;88.57;;;37.63;;
17598;SDS011;8918;52.092;5.232;2023-05-10T05:02:10;95.10;;;40.00;;
17598;SDS011;8918;52.092;5.232;2023-05-10T05:04:36;97.73;;;40.73;;
17598;SDS011;8918;52.092;5.232;2023-05-10T05:07:02;86.63;;;38.73;;
17598;SDS011;8918;52.092;5.232;2023-05-10T05:09:27;85.53;;;37.80;;
17598;SDS011;8918;52.092;5.232;2023-05-10T05:11:53;81.47;;;37.40;;
17598;SDS011;8918;52.092;5.232;2023-05-10T05:14:18;84.77;;;39.50;;
17598;SDS011;8918;52.092;5.232;2023-05-10T05:16:45;74.23;;;35.73;;
17598;SDS011;8918;52.092;5.232;2023-05-10T05:19:11;74.33;;;36.33;;
17598;SDS011;8918;52.092;5.232;2023-05-10T05:21:37;75.50;;;37.10;;
17598;SDS011;8918;52.092;5.232;2023-05-10T05:24:03;76.93;;;37.87;;
17598;SDS011;8918;52.092;5.232;2023-05-10T05:26:28;78.80;;;38.67;;
17598;SDS011;8918;52.092;5.232;2023-05-10T05:28:54;78.30;;;39.83;;
17598;SDS011;8918;52.092;5.232;2023-05-10T05:31:20;86.80;;;40.83;;
17598;SDS011;8918;52.092;5.232;2023-05-10T05:33:45;83.80;;;39.77;;
17598;SDS011;8918;52.092;5.232;2023-05-10T05:36:11;80.27;;;38.03;;
17598;SDS011;8918;52.092;5.232;2023-05-10T05:38:37;80.73;;;37.73;;
17598;SDS011;8918;52.092;5.232;2023-05-10T05:41:02;78.63;;;36.73;;
17598;SDS011;8918;52.092;5.232;2023-05-10T05:43:28;79.37;;;36.40;;
17598;SDS011;8918;52.092;5.232;2023-05-10T05:45:54;71.40;;;35.47;;
17598;SDS011;8918;52.092;5.232;2023-05-10T05:48:19;72.83;;;35.07;;
17598;SDS011;8918;52.092;5.232;2023-05-10T05:50:45;68.03;;;35.07;;
17598;SDS011;8918;52.092;5.232;2023-05-10T05:53:11;70.27;;;35.10;;
17598;SDS011;8918;52.092;5.232;2023-05-10T05:55:37;72.97;;;35.33;;
17598;SDS011;8918;52.092;5.232;2023-05-10T05:58:02;71.83;;;36.40;;
17598;SDS011;8918;52.092;5.232;2023-05-10T06:00:28;83.00;;;38.37;;
17598;SDS011;8918;52.092;5.232;2023-05-10T06:02:53;81.10;;;38.03;;
17598;SDS011;8918;52.092;5.232;2023-05-10T06:05:19;74.43;;;34.60;;
17598;SDS011;8918;52.092;5.232;2023-05-10T06:07:45;72.13;;;31.47;;
17598;SDS011;8918;52.092;5.232;2023-05-10T06:10:11;65.90;;;31.63;;
17598;SDS011;8918;52.092;5.232;2023-05-10T06:12:37;63.63;;;30.20;;
17598;SDS011;8918;52.092;5.232;2023-05-10T06:15:03;59.97;;;29.67;;
17598;SDS011;8918;52.092;5.232;2023-05-10T06:17:28;57.20;;;28.33;;
17598;SDS011;8918;52.092;5.232;2023-05-10T06:19:54;53.40;;;27.90;;
17598;SDS011;8918;52.092;5.232;2023-05-10T06:22:20;52.17;;;27.17;;
17598;SDS011;8918;52.092;5.232;2023-05-10T06:24:47;46.57;;;24.27;;
17598;SDS011;8918;52.092;5.232;2023-05-10T06:27:14;40.63;;;22.60;;
17598;SDS011;8918;52.092;5.232;2023-05-10T06:29:39;35.27;;;20.93;;
17598;SDS011;8918;52.092;5.232;2023-05-10T06:32:05;33.07;;;20.30;;
17598;SDS011;8918;52.092;5.232;2023-05-10T06:34:30;37.17;;;20.47;;
17598;SDS011;8918;52.092;5.232;2023-05-10T06:36:56;33.77;;;17.00;;
17598;SDS011;8918;52.092;5.232;2023-05-10T06:39:22;25.83;;;15.70;;
17598;SDS011;8918;52.092;5.232;2023-05-10T06:41:47;24.60;;;14.53;;
17598;SDS011;8918;52.092;5.232;2023-05-10T06:44:13;19.50;;;12.87;;
17598;SDS011;8918;52.092;5.232;2023-05-10T06:46:39;24.50;;;13.77;;
17598;SDS011;8918;52.092;5.232;2023-05-10T06:49:04;24.33;;;13.90;;
17598;SDS011;8918;52.092;5.232;2023-05-10T06:51:30;21.63;;;13.47;;
17598;SDS011;8918;52.092;5.232;2023-05-10T06:53:55;20.37;;;12.37;;
17598;SDS011;8918;52.092;5.232;2023-05-10T06:56:21;22.33;;;13.30;;
17598;SDS011;8918;52.092;5.232;2023-05-10T06:58:47;19.20;;;12.67;;
17598;SDS011;8918;52.092;5.232;2023-05-10T07:01:13;21.93;;;12.57;;
17598;SDS011;8918;52.092;5.232;2023-05-10T07:03:39;22.07;;;12.63;;
17598;SDS011;8918;52.092;5.232;2023-05-10T07:06:04;19.37;;;12.27;;
17598;SDS011;8918;52.092;5.232;2023-05-10T07:08:31;19.67;;;11.40;;
17598;SDS011;8918;52.092;5.232;2023-05-10T07:11:01;22.33;;;11.80;;
17598;SDS011;8918;52.092;5.232;2023-05-10T07:13:28;18.67;;;12.37;;
17598;SDS011;8918;52.092;5.232;2023-05-10T07:15:55;18.87;;;11.70;;
17598;SDS011;8918;52.092;5.232;2023-05-10T07:18:20;16.70;;;10.43;;
17598;SDS011;8918;52.092;5.232;2023-05-10T07:20:46;17.30;;;10.37;;
17598;SDS011;8918;52.092;5.232;2023-05-10T07:23:11;16.67;;;11.32;;
17598;SDS011;8918;52.092;5.232;2023-05-10T07:25:37;17.13;;;10.57;;
17598;SDS011;8918;52.092;5.232;2023-05-10T07:28:03;16.00;;;10.57;;
17598;SDS011;8918;52.092;5.232;2023-05-10T07:30:29;15.10;;;10.43;;
17598;SDS011;8918;52.092;5.232;2023-05-10T07:32:54;18.60;;;11.10;;
17598;SDS011;8918;52.092;5.232;2023-05-10T07:35:20;17.73;;;11.15;;
17598;SDS011;8918;52.092;5.232;2023-05-10T07:37:45;16.27;;;10.77;;
17598;SDS011;8918;52.092;5.232;2023-05-10T07:40:11;16.05;;;10.70;;
17598;SDS011;8918;52.092;5.232;2023-05-10T07:42:37;14.15;;;10.23;;
17598;SDS011;8918;52.092;5.232;2023-05-10T07:45:03;15.60;;;10.05;;
17598;SDS011;8918;52.092;5.232;2023-05-10T07:47:29;13.88;;;9.48;;
17598;SDS011;8918;52.092;5.232;2023-05-10T07:49:54;14.87;;;9.37;;
17598;SDS011;8918;52.092;5.232;2023-05-10T07:52:20;14.52;;;10.05;;
17598;SDS011;8918;52.092;5.232;2023-05-10T07:54:46;14.90;;;9.80;;
17598;SDS011;8918;52.092;5.232;2023-05-10T07:57:11;14.27;;;9.27;;
17598;SDS011;8918;52.092;5.232;2023-05-10T07:59:39;15.45;;;9.25;;
17598;SDS011;8918;52.092;5.232;2023-05-10T08:02:05;15.75;;;9.50;;
17598;SDS011;8918;52.092;5.232;2023-05-10T08:04:31;16.77;;;9.50;;
17598;SDS011;8918;52.092;5.232;2023-05-10T08:06:56;13.75;;;9.32;;
17598;SDS011;8918;52.092;5.232;2023-05-10T08:09:22;17.57;;;9.70;;
17598;SDS011;8918;52.092;5.232;2023-05-10T08:11:48;12.60;;;8.90;;
17598;SDS011;8918;52.092;5.232;2023-05-10T08:14:15;14.50;;;9.45;;
17598;SDS011;8918;52.092;5.232;2023-05-10T08:16:40;17.00;;;10.27;;
17598;SDS011;8918;52.092;5.232;2023-05-10T08:19:06;15.03;;;9.73;;
17598;SDS011;8918;52.092;5.232;2023-05-10T08:21:31;16.23;;;9.38;;
17598;SDS011;8918;52.092;5.232;2023-05-10T08:23:57;14.27;;;9.38;;
17598;SDS011;8918;52.092;5.232;2023-05-10T08:26:22;17.73;;;10.00;;
17598;SDS011;8918;52.092;5.232;2023-05-10T08:28:48;15.43;;;9.43;;
17598;SDS011;8918;52.092;5.232;2023-05-10T08:31:14;15.63;;;9.50;;
17598;SDS011;8918;52.092;5.232;2023-05-10T08:33:40;13.80;;;9.80;;
17598;SDS011;8918;52.092;5.232;2023-05-10T08:36:06;15.43;;;10.10;;
17598;SDS011;8918;52.092;5.232;2023-05-10T08:38:31;14.15;;;9.80;;
17598;SDS011;8918;52.092;5.232;2023-05-10T08:40:57;14.38;;;9.68;;
17598;SDS011;8918;52.092;5.232;2023-05-10T08:43:27;14.68;;;9.48;;
17598;SDS011;8918;52.092;5.232;2023-05-10T08:45:56;13.77;;;9.48;;
17598;SDS011;8918;52.092;5.232;2023-05-10T08:48:26;12.73;;;9.32;;
17598;SDS011;8918;52.092;5.232;2023-05-10T08:50:53;16.15;;;10.35;;
17598;SDS011;8918;52.092;5.232;2023-05-10T08:53:20;15.30;;;9.68;;
17598;SDS011;8918;52.092;5.232;2023-05-10T08:55:49;14.70;;;9.68;;
17598;SDS011;8918;52.092;5.232;2023-05-10T08:58:14;14.80;;;9.35;;
17598;SDS011;8918;52.092;5.232;2023-05-10T09:00:40;12.85;;;9.00;;
17598;SDS011;8918;52.092;5.232;2023-05-10T09:03:06;14.63;;;10.13;;
17598;SDS011;8918;52.092;5.232;2023-05-10T09:05:32;12.27;;;9.20;;
17598;SDS011;8918;52.092;5.232;2023-05-10T09:07:57;13.75;;;9.30;;
17598;SDS011;8918;52.092;5.232;2023-05-10T09:10:25;11.68;;;9.30;;
17598;SDS011;8918;52.092;5.232;2023-05-10T09:12:52;12.73;;;9.43;;
17598;SDS011;8918;52.092;5.232;2023-05-10T09:15:20;15.25;;;9.43;;
17598;SDS011;8918;52.092;5.232;2023-05-10T09:17:46;14.77;;;9.32;;
17598;SDS011;8918;52.092;5.232;2023-05-10T09:20:13;13.27;;;9.60;;
17598;SDS011;8918;52.092;5.232;2023-05-10T09:22:39;13.45;;;9.63;;
17598;SDS011;8918;52.092;5.232;2023-05-10T09:25:08;12.75;;;9.55;;
17598;SDS011;8918;52.092;5.232;2023-05-10T09:27:36;12.32;;;8.75;;
17598;SDS011;8918;52.092;5.232;2023-05-10T09:30:03;14.95;;;9.13;;
17598;SDS011;8918;52.092;5.232;2023-05-10T09:35:19;13.98;;;9.68;;
17598;SDS011;8918;52.092;5.232;2023-05-10T09:37:47;13.05;;;8.95;;
17598;SDS011;8918;52.092;5.232;2023-05-10T09:40:18;13.18;;;9.35;;
17598;SDS011;8918;52.092;5.232;2023-05-10T09:42:59;12.65;;;9.27;;
17598;SDS011;8918;52.092;5.232;2023-05-10T09:45:27;13.18;;;9.43;;
17598;SDS011;8918;52.092;5.232;2023-05-10T09:47:55;13.25;;;8.98;;
17598;SDS011;8918;52.092;5.232;2023-05-10T09:50:21;12.48;;;8.57;;
17598;SDS011;8918;52.092;5.232;2023-05-10T09:52:51;13.35;;;9.13;;
17598;SDS011;8918;52.092;5.232;2023-05-10T09:55:19;11.00;;;8.15;;
17598;SDS011;8918;52.092;5.232;2023-05-10T09:57:46;10.50;;;7.80;;
17598;SDS011;8918;52.092;5.232;2023-05-10T10:00:16;11.10;;;8.35;;
17598;SDS011;8918;52.092;5.232;2023-05-10T10:02:44;9.93;;;6.90;;
17598;SDS011;8918;52.092;5.232;2023-05-10T10:05:11;10.88;;;7.82;;
17598;SDS011;8918;52.092;5.232;2023-05-10T10:07:36;10.98;;;7.53;;
17598;SDS011;8918;52.092;5.232;2023-05-10T10:10:02;8.90;;;7.30;;
17598;SDS011;8918;52.092;5.232;2023-05-10T10:12:29;9.68;;;6.75;;
17598;SDS011;8918;52.092;5.232;2023-05-10T10:14:55;8.88;;;6.63;;
17598;SDS011;8918;52.092;5.232;2023-05-10T10:17:21;9.85;;;7.22;;
17598;SDS011;8918;52.092;5.232;2023-05-10T10:19:52;10.65;;;6.70;;
17598;SDS011;8918;52.092;5.232;2023-05-10T10:22:17;8.10;;;6.05;;
17598;SDS011;8918;52.092;5.232;2023-05-10T10:24:43;9.15;;;5.88;;
17598;SDS011;8918;52.092;5.232;2023-05-10T10:29:45;6.10;;;4.68;;
17598;SDS011;8918;52.092;5.232;2023-05-10T10:32:27;7.90;;;5.30;;
17598;SDS011;8918;52.092;5.232;2023-05-10T10:35:02;8.32;;;4.88;;
17598;SDS011;8918;52.092;5.232;2023-05-10T10:37:44;4.93;;;3.97;;
17598;SDS011;8918;52.092;5.232;2023-05-10T10:40:24;5.40;;;4.15;;
17598;SDS011;8918;52.092;5.232;2023-05-10T10:42:52;8.88;;;5.60;;
17598;SDS011;8918;52.092;5.232;2023-05-10T10:45:19;8.27;;;5.32;;
17598;SDS011;8918;52.092;5.232;2023-05-10T10:47:45;7.57;;;4.97;;
17598;SDS011;8918;52.092;5.232;2023-05-10T10:50:11;8.57;;;6.00;;
17598;SDS011;8918;52.092;5.232;2023-05-10T10:52:44;8.05;;;5.43;;
17598;SDS011;8918;52.092;5.232;2023-05-10T10:55:14;7.68;;;5.32;;
17598;SDS011;8918;52.092;5.232;2023-05-10T10:57:45;8.82;;;5.70;;
17598;SDS011;8918;52.092;5.232;2023-05-10T11:00:31;7.90;;;5.43;;
17598;SDS011;8918;52.092;5.232;2023-05-10T11:03:06;7.13;;;5.18;;
17598;SDS011;8918;52.092;5.232;2023-05-10T11:05:43;9.63;;;5.85;;
17598;SDS011;8918;52.092;5.232;2023-05-10T11:08:17;7.78;;;5.10;;
17598;SDS011;8918;52.092;5.232;2023-05-10T11:13:29;7.60;;;5.03;;
17598;SDS011;8918;52.092;5.232;2023-05-10T11:15:57;6.35;;;5.20;;
17598;SDS011;8918;52.092;5.232;2023-05-10T11:18:24;6.85;;;5.28;;
17598;SDS011;8918;52.092;5.232;2023-05-10T11:20:57;8.23;;;5.40;;
17598;SDS011;8918;52.092;5.232;2023-05-10T11:23:29;7.15;;;4.70;;
17598;SDS011;8918;52.092;5.232;2023-05-10T11:25:56;5.78;;;5.10;;
17598;SDS011;8918;52.092;5.232;2023-05-10T11:28:23;6.97;;;5.47;;
17598;SDS011;8918;52.092;5.232;2023-05-10T11:30:50;9.48;;;5.53;;
17598;SDS011;8918;52.092;5.232;2023-05-10T11:33:17;7.28;;;5.43;;
17598;SDS011;8918;52.092;5.232;2023-05-10T11:35:44;6.30;;;5.53;;
17598;SDS011;8918;52.092;5.232;2023-05-10T11:38:11;6.93;;;5.45;;
17598;SDS011;8918;52.092;5.232;2023-05-10T11:40:37;6.47;;;5.03;;
17598;SDS011;8918;52.092;5.232;2023-05-10T11:43:04;6.28;;;5.20;;
17598;SDS011;8918;52.092;5.232;2023-05-10T11:45:33;6.70;;;4.93;;
17598;SDS011;8918;52.092;5.232;2023-05-10T11:48:00;6.68;;;4.90;;
17598;SDS011;8918;52.092;5.232;2023-05-10T11:50:26;5.65;;;4.40;;
17598;SDS011;8918;52.092;5.232;2023-05-10T11:52:52;6.38;;;4.15;;
17598;SDS011;8918;52.092;5.232;2023-05-10T11:55:19;7.07;;;4.43;;
17598;SDS011;8918;52.092;5.232;2023-05-10T11:57:44;6.88;;;4.50;;
17598;SDS011;8918;52.092;5.232;2023-05-10T12:00:11;7.45;;;4.22;;
17598;SDS011;8918;52.092;5.232;2023-05-10T12:02:37;7.60;;;4.75;;
17598;SDS011;8918;52.092;5.232;2023-05-10T12:05:04;5.40;;;4.07;;
17598;SDS011;8918;52.092;5.232;2023-05-10T12:07:30;6.88;;;4.25;;
17598;SDS011;8918;52.092;5.232;2023-05-10T12:10:03;5.35;;;4.07;;
17598;SDS011;8918;52.092;5.232;2023-05-10T12:15:07;5.45;;;3.70;;
17598;SDS011;8918;52.092;5.232;2023-05-10T12:17:43;4.53;;;3.75;;
17598;SDS011;8918;52.092;5.232;2023-05-10T12:20:20;4.80;;;3.30;;
17598;SDS011;8918;52.092;5.232;2023-05-10T12:22:48;6.95;;;3.88;;
17598;SDS011;8918;52.092;5.232;2023-05-10T12:25:22;4.35;;;3.10;;
17598;SDS011;8918;52.092;5.232;2023-05-10T12:27:49;5.80;;;4.13;;
17598;SDS011;8918;52.092;5.232;2023-05-10T12:30:23;4.80;;;3.67;;
17598;SDS011;8918;52.092;5.232;2023-05-10T12:32:53;6.80;;;4.32;;
17598;SDS011;8918;52.092;5.232;2023-05-10T12:35:19;6.38;;;5.68;;
17598;SDS011;8918;52.092;5.232;2023-05-10T12:37:49;8.23;;;6.55;;
17598;SDS011;8918;52.092;5.232;2023-05-10T12:40:16;11.10;;;8.40;;
17598;SDS011;8918;52.092;5.232;2023-05-10T12:42:42;9.32;;;7.00;;
17598;SDS011;8918;52.092;5.232;2023-05-10T12:45:09;8.13;;;7.25;;
17598;SDS011;8918;52.092;5.232;2023-05-10T12:47:35;7.30;;;6.50;;
17598;SDS011;8918;52.092;5.232;2023-05-10T12:50:02;10.18;;;8.20;;
17598;SDS011;8918;52.092;5.232;2023-05-10T12:52:28;14.23;;;9.50;;
17598;SDS011;8918;52.092;5.232;2023-05-10T12:54:54;13.65;;;9.55;;
17598;SDS011;8918;52.092;5.232;2023-05-10T12:57:20;16.08;;;9.63;;
17598;SDS011;8918;52.092;5.232;2023-05-10T12:59:46;14.68;;;9.52;;
17598;SDS011;8918;52.092;5.232;2023-05-10T13:02:12;13.95;;;9.00;;
17598;SDS011;8918;52.092;5.232;2023-05-10T13:04:39;12.20;;;8.15;;
17598;SDS011;8918;52.092;5.232;2023-05-10T13:07:06;15.18;;;9.00;;
17598;SDS011;8918;52.092;5.232;2023-05-10T13:09:31;15.60;;;9.43;;
17598;SDS011;8918;52.092;5.232;2023-05-10T13:11:57;15.32;;;9.88;;
17598;SDS011;8918;52.092;5.232;2023-05-10T13:14:23;14.85;;;9.60;;
17598;SDS011;8918;52.092;5.232;2023-05-10T13:16:51;14.75;;;9.75;;
17598;SDS011;8918;52.092;5.232;2023-05-10T13:19:17;16.90;;;10.80;;
17598;SDS011;8918;52.092;5.232;2023-05-10T13:21:43;16.15;;;10.00;;
17598;SDS011;8918;52.092;5.232;2023-05-10T13:24:12;18.13;;;11.75;;
17598;SDS011;8918;52.092;5.232;2023-05-10T13:26:40;18.77;;;11.30;;
17598;SDS011;8918;52.092;5.232;2023-05-10T13:29:06;15.98;;;11.00;;
17598;SDS011;8918;52.092;5.232;2023-05-10T13:31:33;17.35;;;11.48;;
17598;SDS011;8918;52.092;5.232;2023-05-10T13:33:59;17.63;;;11.55;;
17598;SDS011;8918;52.092;5.232;2023-05-10T13:36:25;19.38;;;11.73;;
17598;SDS011;8918;52.092;5.232;2023-05-10T13:38:51;18.70;;;12.00;;
17598;SDS011;8918;52.092;5.232;2023-05-10T13:41:16;18.75;;;11.93;;
17598;SDS011;8918;52.092;5.232;2023-05-10T13:43:42;19.63;;;11.77;;
17598;SDS011;8918;52.092;5.232;2023-05-10T13:46:08;18.35;;;11.50;;
17598;SDS011;8918;52.092;5.232;2023-05-10T13:48:33;20.38;;;12.00;;
17598;SDS011;8918;52.092;5.232;2023-05-10T13:50:59;18.65;;;11.55;;
17598;SDS011;8918;52.092;5.232;2023-05-10T13:53:24;17.90;;;11.63;;
17598;SDS011;8918;52.092;5.232;2023-05-10T13:55:50;16.95;;;11.15;;
17598;SDS011;8918;52.092;5.232;2023-05-10T13:58:15;17.88;;;11.18;;
17598;SDS011;8918;52.092;5.232;2023-05-10T14:00:41;16.88;;;10.52;;
17598;SDS011;8918;52.092;5.232;2023-05-10T14:03:07;15.70;;;10.13;;
17598;SDS011;8918;52.092;5.232;2023-05-10T14:05:35;18.58;;;10.35;;
17598;SDS011;8918;52.092;5.232;2023-05-10T14:08:01;17.95;;;10.70;;
17598;SDS011;8918;52.092;5.232;2023-05-10T14:10:26;15.82;;;10.52;;
17598;SDS011;8918;52.092;5.232;2023-05-10T14:12:52;19.77;;;10.90;;
17598;SDS011;8918;52.092;5.232;2023-05-10T14:15:17;17.38;;;10.52;;
17598;SDS011;8918;52.092;5.232;2023-05-10T14:17:43;16.52;;;10.55;;
17598;SDS011;8918;52.092;5.232;2023-05-10T14:20:09;15.95;;;10.70;;
17598;SDS011;8918;52.092;5.232;2023-05-10T14:22:35;14.68;;;10.18;;
17598;SDS011;8918;52.092;5.232;2023-05-10T14:25:01;16.30;;;10.25;;
17598;SDS011;8918;52.092;5.232;2023-05-10T14:27:26;15.35;;;10.13;;
17598;SDS011;8918;52.092;5.232;2023-05-10T14:29:52;14.18;;;9.35;;
17598;SDS011;8918;52.092;5.232;2023-05-10T14:32:18;11.93;;;8.88;;
17598;SDS011;8918;52.092;5.232;2023-05-10T14:34:44;13.00;;;8.07;;
17598;SDS011;8918;52.092;5.232;2023-05-10T14:37:10;11.63;;;8.38;;
17598;SDS011;8918;52.092;5.232;2023-05-10T14:39:36;12.88;;;7.85;;
17598;SDS011;8918;52.092;5.232;2023-05-10T14:42:02;10.75;;;7.82;;
17598;SDS011;8918;52.092;5.232;2023-05-10T14:44:27;10.50;;;7.63;;
17598;SDS011;8918;52.092;5.232;2023-05-10T14:46:53;11.30;;;8.00;;
17598;SDS011;8918;52.092;5.232;2023-05-10T14:49:18;10.43;;;7.13;;
17598;SDS011;8918;52.092;5.232;2023-05-10T14:51:47;12.73;;;8.30;;
17598;SDS011;8918;52.092;5.232;2023-05-10T14:54:13;11.77;;;8.00;;
17598;SDS011;8918;52.092;5.232;2023-05-10T14:56:38;11.15;;;7.57;;
17598;SDS011;8918;52.092;5.232;2023-05-10T14:59:06;12.85;;;8.68;;
17598;SDS011;8918;52.092;5.232;2023-05-10T15:01:32;11.63;;;8.05;;
17598;SDS011;8918;52.092;5.232;2023-05-10T15:03:58;10.48;;;8.40;;
17598;SDS011;8918;52.092;5.232;2023-05-10T15:06:23;10.85;;;7.70;;